地図

経路データ

SID SEASON NUMBER BASIN SUBBASIN NAME ISO_TIME NATURE LAT LON WMO_WIND WMO_PRES WMO_AGENCY TRACK_TYPE DIST2LAND LANDFALL IFLAG USA_AGENCY USA_ATCF_ID USA_LAT USA_LON USA_RECORD USA_STATUS USA_WIND USA_PRES USA_SSHS USA_R34_NE USA_R34_SE USA_R34_SW USA_R34_NW USA_R50_NE USA_R50_SE USA_R50_SW USA_R50_NW USA_R64_NE USA_R64_SE USA_R64_SW USA_R64_NW USA_POCI USA_ROCI USA_RMW USA_EYE TOKYO_LAT TOKYO_LON TOKYO_GRADE TOKYO_WIND TOKYO_PRES TOKYO_R50_DIR TOKYO_R50_LONG TOKYO_R50_SHORT TOKYO_R30_DIR TOKYO_R30_LONG TOKYO_R30_SHORT TOKYO_LAND CMA_LAT CMA_LON CMA_CAT CMA_WIND CMA_PRES HKO_LAT HKO_LON HKO_CAT HKO_WIND HKO_PRES NEWDELHI_LAT NEWDELHI_LON NEWDELHI_GRADE NEWDELHI_WIND NEWDELHI_PRES NEWDELHI_CI NEWDELHI_DP NEWDELHI_POCI REUNION_LAT REUNION_LON REUNION_TYPE REUNION_WIND REUNION_PRES REUNION_TNUM REUNION_CI REUNION_RMW REUNION_R34_NE REUNION_R34_SE REUNION_R34_SW REUNION_R34_NW REUNION_R50_NE REUNION_R50_SE REUNION_R50_SW REUNION_R50_NW REUNION_R64_NE REUNION_R64_SE REUNION_R64_SW REUNION_R64_NW BOM_LAT BOM_LON BOM_TYPE BOM_WIND BOM_PRES BOM_TNUM BOM_CI BOM_RMW BOM_R34_NE BOM_R34_SE BOM_R34_SW BOM_R34_NW BOM_R50_NE BOM_R50_SE BOM_R50_SW BOM_R50_NW BOM_R64_NE BOM_R64_SE BOM_R64_SW BOM_R64_NW BOM_ROCI BOM_POCI BOM_EYE BOM_POS_METHOD BOM_PRES_METHOD NADI_LAT NADI_LON NADI_CAT NADI_WIND NADI_PRES WELLINGTON_LAT WELLINGTON_LON WELLINGTON_WIND WELLINGTON_PRES DS824_LAT DS824_LON DS824_STAGE DS824_WIND DS824_PRES TD9636_LAT TD9636_LON TD9636_STAGE TD9636_WIND TD9636_PRES TD9635_LAT TD9635_LON TD9635_WIND TD9635_PRES TD9635_ROCI NEUMANN_LAT NEUMANN_LON NEUMANN_CLASS NEUMANN_WIND NEUMANN_PRES MLC_LAT MLC_LON MLC_CLASS MLC_WIND MLC_PRES USA_GUST BOM_GUST BOM_GUST_PER REUNION_GUST REUNION_GUST_PER USA_SEAHGT USA_SEARAD_NE USA_SEARAD_SE USA_SEARAD_SW USA_SEARAD_NW STORM_SPEED STORM_DIR
1940006S17119 1940 4 SI WA NOT_NAMED 1940-01-06 01:00:00 NR -17.0000 118.500 995 bom main 352 343 ______O_______ -1 -17.0000 118.500 995 4 229
1940006S17119 1940 4 SI WA NOT_NAMED 1940-01-06 03:00:00 NR -17.0866 118.400 main 343 335 ______P_______ -1 -17.0866 118.400 4 228
1940006S17119 1940 4 SI WA NOT_NAMED 1940-01-06 06:00:00 NR -17.2177 118.250 main 338 319 ______P_______ -1 -17.2177 118.250 4 228
1940006S17119 1940 4 SI WA NOT_NAMED 1940-01-06 09:00:00 NR -17.3520 118.097 main 319 313 ______P_______ -1 -17.3520 118.097 4 227
1940006S17119 1940 4 SI WA NOT_NAMED 1940-01-06 12:00:00 NR -17.4913 117.941 main 317 306 ______P_______ -1 -17.4913 117.941 4 227
1940006S17119 1940 4 SI WA NOT_NAMED 1940-01-06 15:00:00 NR -17.6375 117.781 main 311 293 ______P_______ -1 -17.6375 117.781 4 226
1940006S17119 1940 4 SI WA NOT_NAMED 1940-01-06 18:00:00 NR -17.7926 117.615 main 295 278 ______P_______ -1 -17.7926 117.615 5 225
1940006S17119 1940 4 SI WA NOT_NAMED 1940-01-06 21:00:00 NR -17.9586 117.443 main 278 270 ______P_______ -1 -17.9586 117.443 5 224
1940006S17119 1940 4 SI WA NOT_NAMED 1940-01-07 00:00:00 TS -18.1298 117.270 main 270 263 ______P__O____ -1 -18.1373 117.262 -18.1000 117.300 TC 45 990 5 224
1940006S17119 1940 4 SI WA NOT_NAMED 1940-01-07 01:00:00 TS -18.1911 117.211 990 bom main 263 257 ______O__P____ -1 -18.2000 117.200 990 -18.1732 117.232 TC 5 222
1940006S17119 1940 4 SI WA NOT_NAMED 1940-01-07 03:00:00 TS -18.3260 117.082 main 257 235 ______P__P____ -1 -18.3305 117.072 -18.3201 117.095 TC 6 222
1940006S17119 1940 4 SI WA NOT_NAMED 1940-01-07 06:00:00 TS -18.5409 116.879 main 235 201 ______P__P____ -1 -18.5389 116.872 -18.5429 116.885 TC 6 222
1940006S17119 1940 4 SI WA NOT_NAMED 1940-01-07 09:00:00 TS -18.7668 116.662 main 201 180 ______P__P____ -1 -18.7622 116.658 -18.7714 116.667 TC 6 222
1940006S17119 1940 4 SI WA NOT_NAMED 1940-01-07 12:00:00 TS -19.0044 116.432 main 181 154 ______P__P____ -1 -19.0005 116.428 -19.0084 116.436 TC 7 223
1940006S17119 1940 4 SI WA NOT_NAMED 1940-01-07 15:00:00 TS -19.2552 116.185 main 154 143 ______P__P____ -1 -19.2534 116.181 -19.2569 116.188 TC 7 223
1940006S17119 1940 4 SI WA NOT_NAMED 1940-01-07 18:00:00 TS -19.5203 115.917 main 148 133 ______P__P____ -1 -19.5208 115.914 -19.5198 115.919 TC 8 224
1940006S17119 1940 4 SI WA NOT_NAMED 1940-01-07 21:00:00 TS -19.8012 115.625 main 138 124 ______P__P____ -1 -19.8025 115.625 -19.7999 115.625 TC 8 225
1940006S17119 1940 4 SI WA NOT_NAMED 1940-01-08 00:00:00 TS -20.0992 115.305 main 128 124 ______P__O____ -1 -20.0983 115.311 -20.1000 115.300 TC 45 990 9 225
1940006S17119 1940 4 SI WA NOT_NAMED 1940-01-08 01:00:00 TS -20.2024 115.192 990 bom main 124 121 ______O__P____ -1 -20.2000 115.200 990 4 -20.2049 115.185 TC 9 226
1940006S17119 1940 4 SI WA NOT_NAMED 1940-01-08 03:00:00 TS -20.4162 114.955 main 121 113 ______P__P____ -1 -20.4118 114.966 -20.4205 114.944 TC 10 227
1940006S17119 1940 4 SI WA NOT_NAMED 1940-01-08 06:00:00 TS -20.7463 114.580 main 116 88 ______P__P____ -1 -20.7409 114.594 -20.7518 114.567 TC 10 227
1940006S17119 1940 4 SI WA NOT_NAMED 1940-01-08 09:00:00 TS -21.0776 114.195 main 88 56 ______P__P____ -1 -21.0729 114.210 -21.0822 114.181 TC 10 228
1940006S17119 1940 4 SI WA NOT_NAMED 1940-01-08 12:00:00 TS -21.3981 113.813 main 59 54 ______P__O____ -1 -21.3962 113.826 -21.4000 113.800 TC 10 228
1940006S17119 1940 4 SI WA NOT_NAMED 1940-01-08 13:00:00 TS -21.5006 113.688 bom main 54 53 ______O__P____ -1 -21.5000 113.700 -21.5012 113.676 TC 9 229
1940006S17119 1940 4 SI WA NOT_NAMED 1940-01-08 15:00:00 TS -21.6982 113.445 main 65 61 ______P__P____ -1 -21.7000 113.455 -21.6965 113.435 TC 9 229
1940006S17119 1940 4 SI WA NOT_NAMED 1940-01-08 18:00:00 TS -21.9798 113.092 main 79 79 ______P__P____ -1 -21.9836 113.099 -21.9747 113.083 TC 9 230
1940006S17119 1940 4 SI WA NOT_NAMED 1940-01-08 21:00:00 TS -22.2481 112.748 main 102 98 ______P__P____ -1 -22.2530 112.753 -22.2406 112.739 TC 8 230
1940006S17119 1940 4 SI WA NOT_NAMED 1940-01-09 00:00:00 TS -22.5093 112.409 main 123 123 ______P__O____ -1 -22.5139 112.413 -22.5000 112.400 TC 40 995 8 230
1940006S17119 1940 4 SI WA NOT_NAMED 1940-01-09 01:00:00 NR -22.6000 112.300 995 bom main 133 ______O_______ -1 -22.6000 112.300 995 TC 8 226

IBTrACS Databaseについて

本データベースは、米国NOAAが公開する1842年以降の世界の熱帯低気圧のベストトラックデータアーカイブInternational Best Track Archive for Climate Stewardship (IBTrACS)を、ウェブで閲覧しやすい形式に変換したものです。

最終更新日:2021-11-26